Mc Kellar Sipes Regional Airport Jackson US
ICAO: KMKL
IATA: MKL
Category: Medium
Scheduled Services: Yes

Elevation: 434 ft
TransAlt. 18000 ft.

Airport Communications:
ASOS:119.325
MEMPHIS CNTR:134.65
CTAF:127.15
GND:120.9
ARNG OPS:41.5
JACKSON RDO:122.2
JACKSON TWR:127.15
UNICOM:122.95

KMKL Zoom In..

Runways:

(A) RW 02 length 6006 ft width 150 ft
ILS 109.10 / hdg 23

(B) RW 11 length 3538 ft width 100 ft
---- / hdg 113

(C) RW 20 length 6006 ft width 150 ft
---- / hdg 203

(D) RW 29 length 3538 ft width 100 ft
---- / hdg 293

Location; KMKL
Day. 04 / Time. 04.39 Zulu
* Altimeter: 30.15
* Temperature: 05° c. 41°f.
* Wind from: 220° Speed 03 kn.
Dewpoint: 04° c.
Visibility: 4 Statute Miles.
Clouds: Overcast 300 ft.
Conditions: Mist.

KMKL 040439Z AUTO 22003KT 4SM BR OVC003 05/04 A3015 RMK AO2 T00500044

Going to: --> -->


Wind From 220°
Speed 03 kn.

 
 
jpsmedia worldairports.se 2020   terms of use